createdAt,value
2023-01-08T00:02:32.526Z,34.03
2023-01-08T00:07:26.737Z,33.60
2023-01-08T00:12:20.764Z,33.28
2023-01-08T00:17:14.261Z,33.15
2023-01-08T00:22:08.252Z,35.38
2023-01-08T00:27:01.861Z,33.22
2023-01-08T00:31:59.235Z,31.98
2023-01-08T00:36:53.130Z,31.52
2023-01-08T00:41:46.757Z,30.52
2023-01-08T00:46:39.783Z,29.58
2023-01-08T00:51:32.942Z,27.83
2023-01-08T00:56:27.038Z,28.08
2023-01-08T01:01:20.860Z,28.20
2023-01-08T01:06:15.331Z,29.15
2023-01-08T01:11:10.706Z,28.70
2023-01-08T01:16:05.018Z,27.13
2023-01-08T01:20:58.996Z,30.00
2023-01-08T01:25:54.896Z,37.42
2023-01-08T01:30:56.119Z,28.83
2023-01-08T01:35:50.318Z,30.17
2023-01-08T01:40:45.163Z,31.65
2023-01-08T01:45:38.659Z,30.35
2023-01-08T01:50:37.226Z,30.80
2023-01-08T01:55:33.310Z,30.95
2023-01-08T02:00:31.408Z,31.50
2023-01-08T02:05:33.619Z,30.95
2023-01-08T02:10:31.221Z,31.75
2023-01-08T02:15:50.484Z,30.45
2023-01-08T02:21:12.731Z,31.23
2023-01-08T02:26:32.897Z,30.80
2023-01-08T02:31:29.786Z,31.90
2023-01-08T02:36:31.885Z,31.63
2023-01-08T02:41:41.458Z,32.50
2023-01-08T02:46:35.370Z,31.92
2023-01-08T02:51:52.559Z,33.22
2023-01-08T02:56:49.918Z,31.90
2023-01-08T03:01:43.472Z,33.38
2023-01-08T03:06:37.728Z,32.05
2023-01-08T03:11:34.232Z,34.08
2023-01-08T03:16:35.259Z,35.10
2023-01-08T03:21:28.876Z,34.90
2023-01-08T03:26:26.319Z,35.75
2023-01-08T03:31:20.447Z,36.35
2023-01-08T03:36:16.446Z,34.30
2023-01-08T03:41:12.192Z,35.17
2023-01-08T03:46:10.394Z,34.65
2023-01-08T03:51:04.636Z,34.65
2023-01-08T03:55:59.575Z,30.83
2023-01-08T04:00:53.378Z,33.00
2023-01-08T04:05:46.464Z,31.92
2023-01-08T04:10:39.589Z,34.70
2023-01-08T04:15:33.525Z,31.50
2023-01-08T04:20:26.990Z,31.15
2023-01-08T04:25:21.304Z,31.38
2023-01-08T04:30:15.852Z,35.75
2023-01-08T04:35:11.486Z,34.13
2023-01-08T04:40:06.371Z,33.03
2023-01-08T04:45:00.152Z,31.38
2023-01-08T04:49:54.484Z,35.40
2023-01-08T04:54:48.751Z,33.67
2023-01-08T04:59:46.381Z,33.22
2023-01-08T05:04:39.833Z,36.65
2023-01-08T05:19:20.497Z,34.92
2023-01-08T05:24:14.848Z,34.00
2023-01-08T05:29:08.161Z,33.33
2023-01-08T05:34:01.905Z,31.05
2023-01-08T05:38:54.734Z,29.75
2023-01-08T05:43:48.200Z,30.50
2023-01-08T05:48:41.797Z,30.77
2023-01-08T05:58:28.610Z,33.77
2023-01-08T06:03:23.381Z,32.28
2023-01-08T06:08:17.625Z,35.83
2023-01-08T06:13:11.448Z,36.33
2023-01-08T06:18:05.964Z,38.80
2023-01-08T06:23:00.250Z,39.00
2023-01-08T06:27:54.459Z,45.58
2023-01-08T06:32:47.630Z,42.13
2023-01-08T06:42:34.415Z,38.40
2023-01-08T06:47:27.553Z,37.00
2023-01-08T06:57:14.646Z,39.35
2023-01-08T07:02:11.527Z,40.97
2023-01-08T07:07:05.727Z,41.20
2023-01-08T07:11:58.989Z,42.90
2023-01-08T07:16:52.729Z,46.38
2023-01-08T07:21:47.082Z,45.40
2023-01-08T07:26:40.672Z,44.90
2023-01-08T07:36:28.590Z,47.95
2023-01-08T07:41:22.314Z,45.78
2023-01-08T07:46:16.857Z,48.55
2023-01-08T07:51:11.006Z,51.00
2023-01-08T07:56:06.519Z,49.92
2023-01-08T08:00:59.531Z,45.88
2023-01-08T08:05:53.286Z,45.67
2023-01-08T08:10:46.833Z,47.30
2023-01-08T08:15:41.839Z,46.10
2023-01-08T08:20:35.875Z,44.13
2023-01-08T08:25:29.254Z,44.50
2023-01-08T08:30:23.382Z,42.35
2023-01-08T08:35:17.108Z,41.15
2023-01-08T08:40:12.576Z,44.70
2023-01-08T08:45:06.578Z,40.80
2023-01-08T08:50:02.357Z,39.97
2023-01-08T08:54:55.138Z,41.10
2023-01-08T08:59:51.740Z,40.92
2023-01-08T09:04:45.924Z,40.10
2023-01-08T09:09:39.668Z,39.83
2023-01-08T09:14:33.698Z,36.47
2023-01-08T09:19:26.944Z,37.25
2023-01-08T09:29:19.186Z,36.03
2023-01-08T09:34:16.233Z,34.35
2023-01-08T09:39:11.049Z,39.30
2023-01-08T09:44:07.033Z,35.03
2023-01-08T09:49:02.566Z,33.83
2023-01-08T09:53:57.105Z,37.13
2023-01-08T09:58:55.783Z,36.70
2023-01-08T10:04:04.788Z,36.85
2023-01-08T10:08:58.786Z,35.65
2023-01-08T10:13:56.053Z,34.42
2023-01-08T10:18:50.212Z,34.20
2023-01-08T10:23:54.099Z,33.72
2023-01-08T10:28:47.757Z,36.70
2023-01-08T10:33:48.346Z,38.10
2023-01-08T10:39:07.204Z,35.25
2023-01-08T10:44:08.233Z,36.78
2023-01-08T10:49:03.768Z,33.22
2023-01-08T10:54:01.762Z,35.70
2023-01-08T10:58:55.442Z,36.28
2023-01-08T11:08:53.576Z,35.17
2023-01-08T11:14:06.038Z,36.63
2023-01-08T11:18:59.632Z,32.83
2023-01-08T11:24:20.562Z,32.50
2023-01-08T11:29:18.814Z,36.72
2023-01-08T11:34:30.768Z,37.78
2023-01-08T11:39:24.443Z,38.83
2023-01-08T11:44:34.889Z,36.97
2023-01-08T11:49:40.360Z,34.22
2023-01-08T11:54:52.036Z,35.25
2023-01-08T12:00:12.612Z,31.17
2023-01-08T12:05:25.632Z,34.13
2023-01-08T12:10:28.764Z,31.30
2023-01-08T12:15:39.789Z,33.67
2023-01-08T12:20:52.768Z,34.83
2023-01-08T12:26:05.713Z,37.72
2023-01-08T12:31:48.695Z,37.80
2023-01-08T12:36:54.803Z,43.78
2023-01-08T12:41:49.433Z,38.72
2023-01-08T12:46:49.164Z,36.90
2023-01-08T12:51:59.887Z,39.50
2023-01-08T12:57:12.161Z,35.67
2023-01-08T13:02:27.626Z,34.88
2023-01-08T13:07:28.967Z,36.95
2023-01-08T13:12:29.805Z,35.42
2023-01-08T13:17:23.276Z,34.72
2023-01-08T13:22:53.128Z,34.72
2023-01-08T13:27:47.252Z,37.95
2023-01-08T13:32:43.347Z,40.78
2023-01-08T13:37:40.337Z,35.90
2023-01-08T13:42:36.035Z,37.95
2023-01-08T13:47:35.777Z,38.38
2023-01-08T13:52:40.288Z,38.65
2023-01-08T13:57:40.807Z,38.20
2023-01-08T14:02:43.358Z,41.17
2023-01-08T14:07:41.230Z,38.53
2023-01-08T14:12:35.694Z,39.45
2023-01-08T14:17:32.490Z,40.03
2023-01-08T14:22:30.663Z,41.10
2023-01-08T14:27:29.611Z,40.30
2023-01-08T14:32:30.028Z,38.00
2023-01-08T14:37:23.283Z,39.55
2023-01-08T14:42:37.939Z,39.85
2023-01-08T14:47:37.804Z,38.40
2023-01-08T14:52:33.052Z,37.72
2023-01-08T14:57:27.720Z,37.05
2023-01-08T15:02:34.769Z,38.55
2023-01-08T15:07:31.247Z,40.40
2023-01-08T15:12:27.715Z,41.63
2023-01-08T15:17:22.772Z,39.13
2023-01-08T15:22:41.824Z,40.50
2023-01-08T15:27:38.031Z,41.78
2023-01-08T15:32:35.581Z,44.28
2023-01-08T15:37:31.196Z,48.20
2023-01-08T15:42:49.806Z,45.45
2023-01-08T15:47:42.827Z,48.58
2023-01-08T15:52:37.903Z,45.33
2023-01-08T15:57:31.471Z,49.00
2023-01-08T16:02:25.978Z,47.40
2023-01-08T16:07:19.948Z,44.35
2023-01-08T16:12:13.868Z,48.63
2023-01-08T16:17:07.844Z,48.50
2023-01-08T16:22:02.066Z,46.95
2023-01-08T16:26:56.029Z,46.63
2023-01-08T16:36:41.702Z,52.08
2023-01-08T16:41:36.206Z,52.57
2023-01-08T16:46:30.559Z,52.38
2023-01-08T16:51:25.778Z,53.35
2023-01-08T16:56:20.237Z,53.72
2023-01-08T17:01:15.379Z,56.95
2023-01-08T17:06:11.615Z,59.55
2023-01-08T17:11:09.159Z,58.30
2023-01-08T17:16:11.223Z,59.58
2023-01-08T17:21:05.999Z,59.92
2023-01-08T17:26:04.947Z,61.63
2023-01-08T17:31:09.700Z,63.05
2023-01-08T17:36:14.000Z,64.47
2023-01-08T17:41:10.127Z,62.83
2023-01-08T17:46:07.736Z,65.93
2023-01-08T17:51:04.937Z,62.45
2023-01-08T17:56:02.702Z,69.20
2023-01-08T18:00:56.576Z,74.25
2023-01-08T18:10:43.735Z,67.75
2023-01-08T18:15:38.143Z,70.95
2023-01-08T18:20:32.230Z,71.93
2023-01-08T18:25:27.251Z,81.82
2023-01-08T18:30:21.995Z,73.40
2023-01-08T18:35:15.995Z,81.15
2023-01-08T18:40:10.510Z,78.70
2023-01-08T18:45:04.481Z,75.18
2023-01-08T18:50:00.727Z,84.88
2023-01-08T18:55:00.139Z,97.75
2023-01-08T19:00:01.119Z,83.20
2023-01-08T19:05:03.067Z,75.47
2023-01-08T19:10:04.454Z,78.32
2023-01-08T19:15:06.170Z,76.00
2023-01-08T19:20:06.428Z,84.27
2023-01-08T19:25:10.983Z,78.00
2023-01-08T19:30:13.936Z,83.05
2023-01-08T19:35:21.287Z,80.88
2023-01-08T19:40:20.020Z,86.85
2023-01-08T19:45:15.036Z,84.75
2023-01-08T19:50:11.993Z,75.13
2023-01-08T19:55:06.605Z,77.80
2023-01-08T19:59:59.539Z,86.97
2023-01-08T20:04:53.713Z,85.88
2023-01-08T20:09:47.739Z,83.18
2023-01-08T20:14:42.903Z,69.88
2023-01-08T20:19:37.703Z,77.38
2023-01-08T20:24:32.128Z,71.13
2023-01-08T20:29:28.077Z,81.05
2023-01-08T20:34:22.379Z,71.72
2023-01-08T20:39:16.970Z,69.03
2023-01-08T20:44:12.516Z,76.57
2023-01-08T20:49:09.391Z,78.78
2023-01-08T20:54:06.077Z,70.60
2023-01-08T20:59:01.341Z,77.35
2023-01-08T21:03:58.772Z,75.03
2023-01-08T21:08:54.513Z,72.18
2023-01-08T21:13:48.748Z,81.65
2023-01-08T21:18:47.948Z,79.07
2023-01-08T21:23:41.608Z,80.57
2023-01-08T21:28:35.472Z,87.97
2023-01-08T21:33:29.966Z,92.70
2023-01-08T21:38:26.573Z,88.95
2023-01-08T21:43:38.787Z,89.63
2023-01-08T21:48:32.662Z,86.18
2023-01-08T21:53:35.952Z,104.20
2023-01-08T21:58:30.335Z,74.78
2023-01-08T22:03:24.325Z,84.15
2023-01-08T22:13:16.906Z,89.18
2023-01-08T22:18:11.342Z,77.05
2023-01-08T22:23:04.365Z,79.10
2023-01-08T22:27:58.350Z,62.33
2023-01-08T22:32:52.593Z,66.28
2023-01-08T22:37:47.480Z,66.15
2023-01-08T22:42:41.162Z,77.03
2023-01-08T22:47:35.060Z,75.53
2023-01-08T22:52:29.319Z,49.67
2023-01-08T22:57:22.920Z,51.15
2023-01-08T23:02:24.686Z,44.95
2023-01-08T23:07:19.412Z,48.60
2023-01-08T23:12:12.755Z,42.45
2023-01-08T23:17:06.366Z,51.08
2023-01-08T23:22:00.127Z,43.20
2023-01-08T23:26:53.361Z,45.95
2023-01-08T23:31:48.552Z,43.78
2023-01-08T23:36:43.721Z,42.40
2023-01-08T23:41:39.144Z,40.80
2023-01-08T23:46:33.289Z,38.35
2023-01-08T23:51:26.371Z,35.17
2023-01-08T23:56:21.039Z,36.63
